sensor_id;sensor_type;location;lat;lon;timestamp;temperature;humidity
44900;DHT22;30628;51.188;6.770;2022-07-29T00:01:26;22.60;83.40
44900;DHT22;30628;51.188;6.770;2022-07-29T00:03:52;22.50;83.30
44900;DHT22;30628;51.188;6.770;2022-07-29T00:06:18;22.50;83.00
44900;DHT22;30628;51.188;6.770;2022-07-29T00:08:46;22.40;83.40
44900;DHT22;30628;51.188;6.770;2022-07-29T00:11:12;22.40;83.50
44900;DHT22;30628;51.188;6.770;2022-07-29T00:13:39;22.40;83.30
44900;DHT22;30628;51.188;6.770;2022-07-29T00:16:05;22.40;84.10
44900;DHT22;30628;51.188;6.770;2022-07-29T00:18:32;22.40;83.60
44900;DHT22;30628;51.188;6.770;2022-07-29T00:20:58;22.50;83.30
44900;DHT22;30628;51.188;6.770;2022-07-29T00:23:24;22.40;83.30
44900;DHT22;30628;51.188;6.770;2022-07-29T00:25:51;22.50;83.30
44900;DHT22;30628;51.188;6.770;2022-07-29T00:28:17;22.50;83.60
44900;DHT22;30628;51.188;6.770;2022-07-29T00:30:43;22.50;83.70
44900;DHT22;30628;51.188;6.770;2022-07-29T00:33:09;22.50;83.50
44900;DHT22;30628;51.188;6.770;2022-07-29T00:35:36;22.50;83.30
44900;DHT22;30628;51.188;6.770;2022-07-29T00:38:16;22.30;84.00
44900;DHT22;30628;51.188;6.770;2022-07-29T00:40:44;22.50;83.20
44900;DHT22;30628;51.188;6.770;2022-07-29T00:43:11;22.50;83.30
44900;DHT22;30628;51.188;6.770;2022-07-29T00:45:38;22.60;83.30
44900;DHT22;30628;51.188;6.770;2022-07-29T00:48:05;22.60;83.50
44900;DHT22;30628;51.188;6.770;2022-07-29T00:50:31;22.60;84.10
44900;DHT22;30628;51.188;6.770;2022-07-29T00:52:58;22.40;83.20
44900;DHT22;30628;51.188;6.770;2022-07-29T00:55:25;22.50;83.90
44900;DHT22;30628;51.188;6.770;2022-07-29T00:57:52;22.50;83.60
44900;DHT22;30628;51.188;6.770;2022-07-29T01:00:21;22.70;83.10
44900;DHT22;30628;51.188;6.770;2022-07-29T01:02:48;22.70;83.10
44900;DHT22;30628;51.188;6.770;2022-07-29T01:05:17;22.50;83.00
44900;DHT22;30628;51.188;6.770;2022-07-29T01:07:45;22.40;83.10
44900;DHT22;30628;51.188;6.770;2022-07-29T01:10:13;22.10;83.80
44900;DHT22;30628;51.188;6.770;2022-07-29T01:12:40;22.40;83.70
44900;DHT22;30628;51.188;6.770;2022-07-29T01:15:08;22.30;83.40
44900;DHT22;30628;51.188;6.770;2022-07-29T01:31:05;22.70;83.00
44900;DHT22;30628;51.188;6.770;2022-07-29T01:33:38;22.70;83.10
44900;DHT22;30628;51.188;6.770;2022-07-29T01:36:49;22.70;83.30
44900;DHT22;30628;51.188;6.770;2022-07-29T01:39:41;22.80;82.70
44900;DHT22;30628;51.188;6.770;2022-07-29T01:47:28;22.90;82.70
44900;DHT22;30628;51.188;6.770;2022-07-29T01:49:58;22.80;83.10
44900;DHT22;30628;51.188;6.770;2022-07-29T01:52:36;22.60;83.20
44900;DHT22;30628;51.188;6.770;2022-07-29T01:55:10;22.60;83.30
44900;DHT22;30628;51.188;6.770;2022-07-29T01:57:41;22.40;83.50
44900;DHT22;30628;51.188;6.770;2022-07-29T02:00:08;22.10;84.40
44900;DHT22;30628;51.188;6.770;2022-07-29T02:02:38;22.20;83.60
44900;DHT22;30628;51.188;6.770;2022-07-29T02:05:05;22.30;83.50
44900;DHT22;30628;51.188;6.770;2022-07-29T02:07:34;22.50;83.30
44900;DHT22;30628;51.188;6.770;2022-07-29T02:10:02;22.60;83.10
44900;DHT22;30628;51.188;6.770;2022-07-29T02:12:31;22.80;82.30
44900;DHT22;30628;51.188;6.770;2022-07-29T02:14:59;22.90;81.80
44900;DHT22;30628;51.188;6.770;2022-07-29T02:17:33;23.00;81.60
44900;DHT22;30628;51.188;6.770;2022-07-29T02:20:01;23.00;81.60
44900;DHT22;30628;51.188;6.770;2022-07-29T02:22:30;23.00;81.70
44900;DHT22;30628;51.188;6.770;2022-07-29T02:24:58;23.10;81.70
44900;DHT22;30628;51.188;6.770;2022-07-29T02:27:25;23.00;82.60
44900;DHT22;30628;51.188;6.770;2022-07-29T02:29:53;23.00;82.70
44900;DHT22;30628;51.188;6.770;2022-07-29T02:32:21;22.80;83.70
44900;DHT22;30628;51.188;6.770;2022-07-29T02:34:48;22.80;83.30
44900;DHT22;30628;51.188;6.770;2022-07-29T02:37:16;22.70;83.40
44900;DHT22;30628;51.188;6.770;2022-07-29T02:39:45;22.80;82.80
44900;DHT22;30628;51.188;6.770;2022-07-29T02:42:15;22.70;82.50
44900;DHT22;30628;51.188;6.770;2022-07-29T02:44:42;22.70;82.50
44900;DHT22;30628;51.188;6.770;2022-07-29T02:47:25;22.70;82.70
44900;DHT22;30628;51.188;6.770;2022-07-29T02:50:15;22.60;83.20
44900;DHT22;30628;51.188;6.770;2022-07-29T02:52:45;22.70;82.00
44900;DHT22;30628;51.188;6.770;2022-07-29T02:55:26;22.60;82.80
44900;DHT22;30628;51.188;6.770;2022-07-29T02:58:05;22.70;82.00
44900;DHT22;30628;51.188;6.770;2022-07-29T03:00:37;22.70;82.30
44900;DHT22;30628;51.188;6.770;2022-07-29T03:03:15;22.70;81.90
44900;DHT22;30628;51.188;6.770;2022-07-29T03:05:42;22.80;81.90
44900;DHT22;30628;51.188;6.770;2022-07-29T03:08:11;22.60;82.40
44900;DHT22;30628;51.188;6.770;2022-07-29T03:10:39;22.50;82.30
44900;DHT22;30628;51.188;6.770;2022-07-29T03:13:07;22.40;83.00
44900;DHT22;30628;51.188;6.770;2022-07-29T03:15:35;22.40;82.50
44900;DHT22;30628;51.188;6.770;2022-07-29T03:18:02;22.30;83.60
44900;DHT22;30628;51.188;6.770;2022-07-29T03:20:29;22.40;83.30
44900;DHT22;30628;51.188;6.770;2022-07-29T03:22:55;22.40;83.70
44900;DHT22;30628;51.188;6.770;2022-07-29T03:25:22;22.30;84.80
44900;DHT22;30628;51.188;6.770;2022-07-29T03:27:48;22.20;85.00
44900;DHT22;30628;51.188;6.770;2022-07-29T03:30:15;22.20;84.00
44900;DHT22;30628;51.188;6.770;2022-07-29T03:32:41;22.10;86.80
44900;DHT22;30628;51.188;6.770;2022-07-29T03:35:08;22.00;87.70
44900;DHT22;30628;51.188;6.770;2022-07-29T03:37:34;21.90;87.80
44900;DHT22;30628;51.188;6.770;2022-07-29T03:40:08;21.90;87.00
44900;DHT22;30628;51.188;6.770;2022-07-29T03:42:38;21.90;88.40
44900;DHT22;30628;51.188;6.770;2022-07-29T03:45:07;21.90;87.40
44900;DHT22;30628;51.188;6.770;2022-07-29T03:47:35;21.70;86.80
44900;DHT22;30628;51.188;6.770;2022-07-29T03:50:07;21.60;88.60
44900;DHT22;30628;51.188;6.770;2022-07-29T03:52:34;21.80;86.40
44900;DHT22;30628;51.188;6.770;2022-07-29T03:55:02;21.70;90.10
44900;DHT22;30628;51.188;6.770;2022-07-29T03:57:30;21.50;90.30
44900;DHT22;30628;51.188;6.770;2022-07-29T03:59:57;21.00;91.80
44900;DHT22;30628;51.188;6.770;2022-07-29T04:02:24;20.80;92.00
44900;DHT22;30628;51.188;6.770;2022-07-29T04:04:51;20.40;93.70
44900;DHT22;30628;51.188;6.770;2022-07-29T04:07:18;20.10;94.90
44900;DHT22;30628;51.188;6.770;2022-07-29T04:09:44;19.80;94.90
44900;DHT22;30628;51.188;6.770;2022-07-29T04:12:10;19.60;94.70
44900;DHT22;30628;51.188;6.770;2022-07-29T04:14:37;19.70;95.50
44900;DHT22;30628;51.188;6.770;2022-07-29T04:17:04;20.00;93.80
44900;DHT22;30628;51.188;6.770;2022-07-29T04:19:32;20.20;92.90
44900;DHT22;30628;51.188;6.770;2022-07-29T04:21:58;20.40;91.70
44900;DHT22;30628;51.188;6.770;2022-07-29T04:24:25;20.40;94.60
44900;DHT22;30628;51.188;6.770;2022-07-29T04:26:52;19.80;96.50
44900;DHT22;30628;51.188;6.770;2022-07-29T04:29:18;19.30;98.00
44900;DHT22;30628;51.188;6.770;2022-07-29T04:31:45;19.00;97.90
44900;DHT22;30628;51.188;6.770;2022-07-29T04:34:12;18.80;99.10
44900;DHT22;30628;51.188;6.770;2022-07-29T04:36:38;18.90;98.30
44900;DHT22;30628;51.188;6.770;2022-07-29T04:39:04;19.00;96.50
44900;DHT22;30628;51.188;6.770;2022-07-29T04:41:31;19.30;97.20
44900;DHT22;30628;51.188;6.770;2022-07-29T04:43:57;19.30;99.40
44900;DHT22;30628;51.188;6.770;2022-07-29T04:46:23;19.20;98.20
44900;DHT22;30628;51.188;6.770;2022-07-29T04:48:49;19.10;99.90
44900;DHT22;30628;51.188;6.770;2022-07-29T04:51:16;18.90;99.50
44900;DHT22;30628;51.188;6.770;2022-07-29T04:53:42;18.90;99.70
44900;DHT22;30628;51.188;6.770;2022-07-29T04:56:08;18.90;99.90
44900;DHT22;30628;51.188;6.770;2022-07-29T04:58:35;19.10;99.20
44900;DHT22;30628;51.188;6.770;2022-07-29T05:01:03;18.90;99.00
44900;DHT22;30628;51.188;6.770;2022-07-29T05:03:29;19.30;97.20
44900;DHT22;30628;51.188;6.770;2022-07-29T05:05:55;19.40;98.90
44900;DHT22;30628;51.188;6.770;2022-07-29T05:08:21;19.30;99.60
44900;DHT22;30628;51.188;6.770;2022-07-29T05:10:48;19.30;99.70
44900;DHT22;30628;51.188;6.770;2022-07-29T05:13:14;19.40;97.00
44900;DHT22;30628;51.188;6.770;2022-07-29T05:15:40;19.60;98.50
44900;DHT22;30628;51.188;6.770;2022-07-29T05:18:06;19.60;98.20
44900;DHT22;30628;51.188;6.770;2022-07-29T05:20:32;19.30;99.70
44900;DHT22;30628;51.188;6.770;2022-07-29T05:23:00;19.00;99.90
44900;DHT22;30628;51.188;6.770;2022-07-29T05:25:27;19.00;99.90
44900;DHT22;30628;51.188;6.770;2022-07-29T05:27:54;19.00;99.90
44900;DHT22;30628;51.188;6.770;2022-07-29T05:30:21;19.10;99.10
44900;DHT22;30628;51.188;6.770;2022-07-29T05:32:47;19.40;99.90
44900;DHT22;30628;51.188;6.770;2022-07-29T05:35:14;19.60;96.70
44900;DHT22;30628;51.188;6.770;2022-07-29T05:37:41;20.00;96.40
44900;DHT22;30628;51.188;6.770;2022-07-29T05:40:08;20.10;97.00
44900;DHT22;30628;51.188;6.770;2022-07-29T05:42:34;20.20;97.20
44900;DHT22;30628;51.188;6.770;2022-07-29T05:45:01;20.10;98.90
44900;DHT22;30628;51.188;6.770;2022-07-29T05:47:27;19.90;98.70
44900;DHT22;30628;51.188;6.770;2022-07-29T05:49:54;19.70;99.90
44900;DHT22;30628;51.188;6.770;2022-07-29T05:52:21;19.70;99.90
44900;DHT22;30628;51.188;6.770;2022-07-29T05:54:47;19.90;97.40
44900;DHT22;30628;51.188;6.770;2022-07-29T05:57:17;20.20;96.40
44900;DHT22;30628;51.188;6.770;2022-07-29T05:59:44;20.20;97.60
44900;DHT22;30628;51.188;6.770;2022-07-29T06:02:10;20.10;99.90
44900;DHT22;30628;51.188;6.770;2022-07-29T06:04:37;20.20;98.30
44900;DHT22;30628;51.188;6.770;2022-07-29T06:07:03;20.40;96.20
44900;DHT22;30628;51.188;6.770;2022-07-29T06:09:30;20.60;95.80
44900;DHT22;30628;51.188;6.770;2022-07-29T06:11:56;20.70;98.10
44900;DHT22;30628;51.188;6.770;2022-07-29T06:14:24;20.80;98.10
44900;DHT22;30628;51.188;6.770;2022-07-29T06:16:50;21.00;94.60
44900;DHT22;30628;51.188;6.770;2022-07-29T06:19:17;21.10;95.10
44900;DHT22;30628;51.188;6.770;2022-07-29T06:21:44;21.30;93.60
44900;DHT22;30628;51.188;6.770;2022-07-29T06:24:11;21.30;93.90
44900;DHT22;30628;51.188;6.770;2022-07-29T06:26:41;21.40;93.40
44900;DHT22;30628;51.188;6.770;2022-07-29T06:29:08;21.50;93.00
44900;DHT22;30628;51.188;6.770;2022-07-29T06:31:36;21.50;92.80
44900;DHT22;30628;51.188;6.770;2022-07-29T06:34:03;21.50;92.40
44900;DHT22;30628;51.188;6.770;2022-07-29T06:36:30;21.60;92.70
44900;DHT22;30628;51.188;6.770;2022-07-29T06:38:56;21.60;92.40
44900;DHT22;30628;51.188;6.770;2022-07-29T06:41:22;21.60;92.30
44900;DHT22;30628;51.188;6.770;2022-07-29T06:43:49;21.60;92.30
44900;DHT22;30628;51.188;6.770;2022-07-29T06:46:18;21.60;93.90
44900;DHT22;30628;51.188;6.770;2022-07-29T06:48:45;21.60;94.20
44900;DHT22;30628;51.188;6.770;2022-07-29T06:51:11;21.60;92.90
44900;DHT22;30628;51.188;6.770;2022-07-29T06:53:38;21.60;92.30
44900;DHT22;30628;51.188;6.770;2022-07-29T06:56:06;21.60;96.00
44900;DHT22;30628;51.188;6.770;2022-07-29T06:58:35;21.60;96.10
44900;DHT22;30628;51.188;6.770;2022-07-29T07:01:03;21.60;93.10
44900;DHT22;30628;51.188;6.770;2022-07-29T07:03:30;21.70;92.90
44900;DHT22;30628;51.188;6.770;2022-07-29T07:05:57;21.70;92.50
44900;DHT22;30628;51.188;6.770;2022-07-29T07:08:23;21.80;92.20
44900;DHT22;30628;51.188;6.770;2022-07-29T07:10:51;21.80;92.60
44900;DHT22;30628;51.188;6.770;2022-07-29T07:13:19;21.80;92.40
44900;DHT22;30628;51.188;6.770;2022-07-29T07:15:45;21.90;92.10
44900;DHT22;30628;51.188;6.770;2022-07-29T07:18:15;21.80;92.90
44900;DHT22;30628;51.188;6.770;2022-07-29T07:20:41;21.80;92.60
44900;DHT22;30628;51.188;6.770;2022-07-29T07:23:07;21.90;92.40
44900;DHT22;30628;51.188;6.770;2022-07-29T07:25:34;21.90;92.30
44900;DHT22;30628;51.188;6.770;2022-07-29T07:28:00;21.90;92.40
44900;DHT22;30628;51.188;6.770;2022-07-29T07:30:27;21.90;92.80
44900;DHT22;30628;51.188;6.770;2022-07-29T07:32:53;21.90;95.00
44900;DHT22;30628;51.188;6.770;2022-07-29T07:35:20;21.80;94.10
44900;DHT22;30628;51.188;6.770;2022-07-29T07:37:46;21.80;93.70
44900;DHT22;30628;51.188;6.770;2022-07-29T07:40:12;21.70;93.50
44900;DHT22;30628;51.188;6.770;2022-07-29T07:42:40;21.80;92.70
44900;DHT22;30628;51.188;6.770;2022-07-29T07:45:08;21.90;92.70
44900;DHT22;30628;51.188;6.770;2022-07-29T07:47:36;21.90;92.60
44900;DHT22;30628;51.188;6.770;2022-07-29T07:50:04;21.90;92.70
44900;DHT22;30628;51.188;6.770;2022-07-29T07:52:31;21.90;93.40
44900;DHT22;30628;51.188;6.770;2022-07-29T07:54:57;21.80;97.60
44900;DHT22;30628;51.188;6.770;2022-07-29T07:57:23;21.50;96.40
44900;DHT22;30628;51.188;6.770;2022-07-29T07:59:50;21.50;94.20
44900;DHT22;30628;51.188;6.770;2022-07-29T08:02:16;21.70;93.40
44900;DHT22;30628;51.188;6.770;2022-07-29T08:04:42;21.80;93.30
44900;DHT22;30628;51.188;6.770;2022-07-29T08:07:08;21.70;94.20
44900;DHT22;30628;51.188;6.770;2022-07-29T08:09:35;21.60;99.90
44900;DHT22;30628;51.188;6.770;2022-07-29T08:12:02;21.00;99.90
44900;DHT22;30628;51.188;6.770;2022-07-29T08:14:30;20.70;99.90
44900;DHT22;30628;51.188;6.770;2022-07-29T08:16:57;20.60;99.90
44900;DHT22;30628;51.188;6.770;2022-07-29T08:19:23;20.70;99.90
44900;DHT22;30628;51.188;6.770;2022-07-29T08:21:49;20.90;97.10
44900;DHT22;30628;51.188;6.770;2022-07-29T08:24:16;21.10;96.90
44900;DHT22;30628;51.188;6.770;2022-07-29T08:27:00;21.30;95.10
44900;DHT22;30628;51.188;6.770;2022-07-29T08:29:26;21.50;94.90
44900;DHT22;30628;51.188;6.770;2022-07-29T08:31:53;21.50;95.00
44900;DHT22;30628;51.188;6.770;2022-07-29T08:34:19;21.60;95.20
44900;DHT22;30628;51.188;6.770;2022-07-29T08:36:45;21.60;94.70
44900;DHT22;30628;51.188;6.770;2022-07-29T08:39:11;21.50;97.30
44900;DHT22;30628;51.188;6.770;2022-07-29T08:41:37;21.20;99.90
44900;DHT22;30628;51.188;6.770;2022-07-29T08:44:04;20.60;99.90
44900;DHT22;30628;51.188;6.770;2022-07-29T08:46:30;20.20;99.90
44900;DHT22;30628;51.188;6.770;2022-07-29T08:48:56;20.00;99.90
44900;DHT22;30628;51.188;6.770;2022-07-29T08:51:23;20.10;99.90
44900;DHT22;30628;51.188;6.770;2022-07-29T08:53:51;20.40;99.70
44900;DHT22;30628;51.188;6.770;2022-07-29T08:56:18;20.70;97.10
44900;DHT22;30628;51.188;6.770;2022-07-29T08:58:46;21.00;96.30
44900;DHT22;30628;51.188;6.770;2022-07-29T09:01:17;21.30;95.90
44900;DHT22;30628;51.188;6.770;2022-07-29T09:03:44;21.40;95.60
44900;DHT22;30628;51.188;6.770;2022-07-29T09:06:14;21.50;95.40
44900;DHT22;30628;51.188;6.770;2022-07-29T09:08:41;21.60;95.00
44900;DHT22;30628;51.188;6.770;2022-07-29T09:11:07;21.60;95.40
44900;DHT22;30628;51.188;6.770;2022-07-29T09:13:34;21.70;95.90
44900;DHT22;30628;51.188;6.770;2022-07-29T09:16:00;21.80;94.90
44900;DHT22;30628;51.188;6.770;2022-07-29T09:18:35;21.90;94.70
44900;DHT22;30628;51.188;6.770;2022-07-29T09:21:03;21.90;94.80
44900;DHT22;30628;51.188;6.770;2022-07-29T09:24:06;22.00;95.90
44900;DHT22;30628;51.188;6.770;2022-07-29T09:26:44;21.90;94.70
44900;DHT22;30628;51.188;6.770;2022-07-29T09:29:20;21.90;99.70
44900;DHT22;30628;51.188;6.770;2022-07-29T09:31:51;22.00;98.40
44900;DHT22;30628;51.188;6.770;2022-07-29T09:34:23;21.90;95.90
44900;DHT22;30628;51.188;6.770;2022-07-29T09:36:51;22.00;95.00
44900;DHT22;30628;51.188;6.770;2022-07-29T09:41:55;22.00;97.10
44900;DHT22;30628;51.188;6.770;2022-07-29T09:44:22;22.10;95.30
44900;DHT22;30628;51.188;6.770;2022-07-29T09:47:00;22.00;94.50
44900;DHT22;30628;51.188;6.770;2022-07-29T09:49:56;22.00;96.90
44900;DHT22;30628;51.188;6.770;2022-07-29T09:52:25;22.00;93.80
44900;DHT22;30628;51.188;6.770;2022-07-29T09:54:51;22.00;95.00
44900;DHT22;30628;51.188;6.770;2022-07-29T09:57:28;22.00;95.70
44900;DHT22;30628;51.188;6.770;2022-07-29T10:00:05;22.10;94.90
44900;DHT22;30628;51.188;6.770;2022-07-29T10:02:35;22.20;94.50
44900;DHT22;30628;51.188;6.770;2022-07-29T10:05:15;22.20;95.10
44900;DHT22;30628;51.188;6.770;2022-07-29T10:07:49;22.20;95.60
44900;DHT22;30628;51.188;6.770;2022-07-29T10:10:24;22.20;94.30
44900;DHT22;30628;51.188;6.770;2022-07-29T10:13:00;22.30;93.80
44900;DHT22;30628;51.188;6.770;2022-07-29T10:15:31;22.40;93.40
44900;DHT22;30628;51.188;6.770;2022-07-29T10:17:59;22.40;93.50
44900;DHT22;30628;51.188;6.770;2022-07-29T10:20:26;22.40;93.70
44900;DHT22;30628;51.188;6.770;2022-07-29T10:22:53;22.30;96.30
44900;DHT22;30628;51.188;6.770;2022-07-29T10:25:20;22.30;95.50
44900;DHT22;30628;51.188;6.770;2022-07-29T10:27:50;22.20;96.00
44900;DHT22;30628;51.188;6.770;2022-07-29T10:30:18;22.20;95.70
44900;DHT22;30628;51.188;6.770;2022-07-29T10:36:19;22.40;95.40
44900;DHT22;30628;51.188;6.770;2022-07-29T10:44:22;22.50;95.80
44900;DHT22;30628;51.188;6.770;2022-07-29T10:46:50;22.50;96.70
44900;DHT22;30628;51.188;6.770;2022-07-29T10:49:21;22.60;96.40
44900;DHT22;30628;51.188;6.770;2022-07-29T10:57:16;22.50;96.90
44900;DHT22;30628;51.188;6.770;2022-07-29T10:59:45;22.70;96.20
44900;DHT22;30628;51.188;6.770;2022-07-29T11:07:37;22.90;95.60
44900;DHT22;30628;51.188;6.770;2022-07-29T11:15:14;22.90;95.20
44900;DHT22;30628;51.188;6.770;2022-07-29T11:23:30;23.00;98.30
44900;DHT22;30628;51.188;6.770;2022-07-29T11:29:15;23.00;97.40
44900;DHT22;30628;51.188;6.770;2022-07-29T11:31:47;23.20;97.60
44900;DHT22;30628;51.188;6.770;2022-07-29T11:34:28;23.20;99.00
44900;DHT22;30628;51.188;6.770;2022-07-29T11:39:35;23.60;96.60
44900;DHT22;30628;51.188;6.770;2022-07-29T11:47:41;23.60;96.60
44900;DHT22;30628;51.188;6.770;2022-07-29T11:50:13;23.80;95.90
44900;DHT22;30628;51.188;6.770;2022-07-29T11:52:44;24.00;96.20
44900;DHT22;30628;51.188;6.770;2022-07-29T11:55:18;24.20;96.00
44900;DHT22;30628;51.188;6.770;2022-07-29T11:57:52;24.20;96.10
44900;DHT22;30628;51.188;6.770;2022-07-29T12:02:53;24.30;95.80
44900;DHT22;30628;51.188;6.770;2022-07-29T12:05:20;24.30;95.10
44900;DHT22;30628;51.188;6.770;2022-07-29T12:07:47;24.30;97.40
44900;DHT22;30628;51.188;6.770;2022-07-29T12:10:17;24.20;95.90
44900;DHT22;30628;51.188;6.770;2022-07-29T12:12:51;24.20;96.20
44900;DHT22;30628;51.188;6.770;2022-07-29T12:15:18;24.20;96.60
44900;DHT22;30628;51.188;6.770;2022-07-29T12:17:47;24.30;97.40
44900;DHT22;30628;51.188;6.770;2022-07-29T12:20:22;24.30;97.70
44900;DHT22;30628;51.188;6.770;2022-07-29T12:22:48;24.40;97.10
44900;DHT22;30628;51.188;6.770;2022-07-29T12:25:18;24.40;96.70
44900;DHT22;30628;51.188;6.770;2022-07-29T12:27:44;24.50;96.60
44900;DHT22;30628;51.188;6.770;2022-07-29T12:30:17;24.60;96.10
44900;DHT22;30628;51.188;6.770;2022-07-29T12:32:46;24.70;95.80
44900;DHT22;30628;51.188;6.770;2022-07-29T12:35:18;24.80;95.30
44900;DHT22;30628;51.188;6.770;2022-07-29T12:37:46;24.80;95.10
44900;DHT22;30628;51.188;6.770;2022-07-29T12:40:18;24.80;95.30
44900;DHT22;30628;51.188;6.770;2022-07-29T12:43:08;24.80;95.30
44900;DHT22;30628;51.188;6.770;2022-07-29T12:45:36;24.90;94.80
44900;DHT22;30628;51.188;6.770;2022-07-29T12:48:03;24.90;94.50
44900;DHT22;30628;51.188;6.770;2022-07-29T12:50:29;24.90;94.40
44900;DHT22;30628;51.188;6.770;2022-07-29T12:53:20;25.00;93.70
44900;DHT22;30628;51.188;6.770;2022-07-29T12:55:54;25.00;93.70
44900;DHT22;30628;51.188;6.770;2022-07-29T13:01:13;24.90;93.90
44900;DHT22;30628;51.188;6.770;2022-07-29T13:03:49;25.00;93.80
44900;DHT22;30628;51.188;6.770;2022-07-29T13:09:04;25.20;93.80
44900;DHT22;30628;51.188;6.770;2022-07-29T13:11:52;25.30;93.10
44900;DHT22;30628;51.188;6.770;2022-07-29T13:14:38;25.30;93.30
44900;DHT22;30628;51.188;6.770;2022-07-29T13:17:09;25.40;93.40
44900;DHT22;30628;51.188;6.770;2022-07-29T13:22:30;25.40;92.90
44900;DHT22;30628;51.188;6.770;2022-07-29T13:24:58;25.50;93.10
44900;DHT22;30628;51.188;6.770;2022-07-29T13:27:30;25.60;92.60
44900;DHT22;30628;51.188;6.770;2022-07-29T13:30:00;25.70;93.10
44900;DHT22;30628;51.188;6.770;2022-07-29T13:32:29;25.70;93.00
44900;DHT22;30628;51.188;6.770;2022-07-29T13:34:58;25.80;92.60
44900;DHT22;30628;51.188;6.770;2022-07-29T13:37:30;25.80;92.60
44900;DHT22;30628;51.188;6.770;2022-07-29T13:39:58;25.80;92.50
44900;DHT22;30628;51.188;6.770;2022-07-29T13:42:29;25.80;92.80
44900;DHT22;30628;51.188;6.770;2022-07-29T13:44:55;25.90;92.10
44900;DHT22;30628;51.188;6.770;2022-07-29T13:47:21;25.90;92.30
44900;DHT22;30628;51.188;6.770;2022-07-29T13:49:51;26.00;92.40
44900;DHT22;30628;51.188;6.770;2022-07-29T13:52:24;26.00;92.10
44900;DHT22;30628;51.188;6.770;2022-07-29T13:54:50;26.10;92.70
44900;DHT22;30628;51.188;6.770;2022-07-29T13:57:20;26.10;91.20
44900;DHT22;30628;51.188;6.770;2022-07-29T13:59:49;26.10;91.70
44900;DHT22;30628;51.188;6.770;2022-07-29T14:02:17;26.20;91.50
44900;DHT22;30628;51.188;6.770;2022-07-29T14:04:46;26.30;91.30
44900;DHT22;30628;51.188;6.770;2022-07-29T14:07:13;26.30;91.10
44900;DHT22;30628;51.188;6.770;2022-07-29T14:09:42;26.40;92.10
44900;DHT22;30628;51.188;6.770;2022-07-29T14:12:11;26.30;92.00
44900;DHT22;30628;51.188;6.770;2022-07-29T14:14:40;26.40;92.10
44900;DHT22;30628;51.188;6.770;2022-07-29T14:17:10;26.40;91.60
44900;DHT22;30628;51.188;6.770;2022-07-29T14:19:39;26.40;92.10
44900;DHT22;30628;51.188;6.770;2022-07-29T14:22:06;26.40;91.70
44900;DHT22;30628;51.188;6.770;2022-07-29T14:24:42;26.40;91.90
44900;DHT22;30628;51.188;6.770;2022-07-29T14:27:08;26.50;91.50
44900;DHT22;30628;51.188;6.770;2022-07-29T14:29:34;26.50;91.20
44900;DHT22;30628;51.188;6.770;2022-07-29T14:32:07;26.40;91.00
44900;DHT22;30628;51.188;6.770;2022-07-29T14:34:34;26.40;90.90
44900;DHT22;30628;51.188;6.770;2022-07-29T14:37:01;26.30;90.50
44900;DHT22;30628;51.188;6.770;2022-07-29T14:39:28;26.30;91.30
44900;DHT22;30628;51.188;6.770;2022-07-29T14:41:58;26.40;91.10
44900;DHT22;30628;51.188;6.770;2022-07-29T14:44:25;26.50;90.50
44900;DHT22;30628;51.188;6.770;2022-07-29T14:47:02;26.60;90.40
44900;DHT22;30628;51.188;6.770;2022-07-29T14:49:32;26.60;89.80
44900;DHT22;30628;51.188;6.770;2022-07-29T14:52:01;26.60;90.70
44900;DHT22;30628;51.188;6.770;2022-07-29T14:54:34;26.70;90.50
44900;DHT22;30628;51.188;6.770;2022-07-29T14:57:08;26.60;89.90
44900;DHT22;30628;51.188;6.770;2022-07-29T14:59:38;26.60;89.30
44900;DHT22;30628;51.188;6.770;2022-07-29T15:02:04;26.60;90.30
44900;DHT22;30628;51.188;6.770;2022-07-29T15:04:30;26.70;90.20
44900;DHT22;30628;51.188;6.770;2022-07-29T15:07:03;26.60;87.30
44900;DHT22;30628;51.188;6.770;2022-07-29T15:09:35;26.60;86.30
44900;DHT22;30628;51.188;6.770;2022-07-29T15:12:02;26.60;87.90
44900;DHT22;30628;51.188;6.770;2022-07-29T15:14:28;26.60;89.50
44900;DHT22;30628;51.188;6.770;2022-07-29T15:16:55;26.70;87.10
44900;DHT22;30628;51.188;6.770;2022-07-29T15:19:24;26.70;86.30
44900;DHT22;30628;51.188;6.770;2022-07-29T15:21:53;26.80;87.90
44900;DHT22;30628;51.188;6.770;2022-07-29T15:24:19;26.80;85.60
44900;DHT22;30628;51.188;6.770;2022-07-29T15:26:48;26.70;84.20
44900;DHT22;30628;51.188;6.770;2022-07-29T15:29:20;26.70;86.90
44900;DHT22;30628;51.188;6.770;2022-07-29T15:31:47;26.70;84.70
44900;DHT22;30628;51.188;6.770;2022-07-29T15:34:13;26.70;85.30
44900;DHT22;30628;51.188;6.770;2022-07-29T15:36:42;26.70;85.30
44900;DHT22;30628;51.188;6.770;2022-07-29T15:39:08;26.70;87.20
44900;DHT22;30628;51.188;6.770;2022-07-29T15:41:37;26.70;86.80
44900;DHT22;30628;51.188;6.770;2022-07-29T15:44:04;26.70;85.70
44900;DHT22;30628;51.188;6.770;2022-07-29T15:46:30;26.70;85.90
44900;DHT22;30628;51.188;6.770;2022-07-29T15:49:14;26.70;86.40
44900;DHT22;30628;51.188;6.770;2022-07-29T15:51:41;26.70;84.90
44900;DHT22;30628;51.188;6.770;2022-07-29T15:54:07;26.70;87.00
44900;DHT22;30628;51.188;6.770;2022-07-29T15:56:33;26.70;86.20
44900;DHT22;30628;51.188;6.770;2022-07-29T15:59:00;26.70;85.20
44900;DHT22;30628;51.188;6.770;2022-07-29T16:01:26;26.60;86.00
44900;DHT22;30628;51.188;6.770;2022-07-29T16:03:53;26.70;85.90
44900;DHT22;30628;51.188;6.770;2022-07-29T16:06:20;26.60;86.30
44900;DHT22;30628;51.188;6.770;2022-07-29T16:08:47;26.60;86.50
44900;DHT22;30628;51.188;6.770;2022-07-29T16:11:13;26.60;85.60
44900;DHT22;30628;51.188;6.770;2022-07-29T16:13:39;26.50;87.10
44900;DHT22;30628;51.188;6.770;2022-07-29T16:16:05;26.60;86.70
44900;DHT22;30628;51.188;6.770;2022-07-29T16:18:31;26.60;86.00
44900;DHT22;30628;51.188;6.770;2022-07-29T16:20:58;26.50;85.40
44900;DHT22;30628;51.188;6.770;2022-07-29T16:23:24;26.50;85.60
44900;DHT22;30628;51.188;6.770;2022-07-29T16:25:50;26.40;86.10
44900;DHT22;30628;51.188;6.770;2022-07-29T16:28:16;26.40;86.20
44900;DHT22;30628;51.188;6.770;2022-07-29T16:30:43;26.30;86.30
44900;DHT22;30628;51.188;6.770;2022-07-29T16:33:09;26.40;85.60
44900;DHT22;30628;51.188;6.770;2022-07-29T16:35:35;26.50;87.20
44900;DHT22;30628;51.188;6.770;2022-07-29T16:38:05;26.50;86.90
44900;DHT22;30628;51.188;6.770;2022-07-29T16:40:31;26.40;86.50
44900;DHT22;30628;51.188;6.770;2022-07-29T16:42:57;26.40;87.00
44900;DHT22;30628;51.188;6.770;2022-07-29T16:45:24;26.50;87.00
44900;DHT22;30628;51.188;6.770;2022-07-29T16:47:50;26.50;87.10
44900;DHT22;30628;51.188;6.770;2022-07-29T16:50:18;26.50;87.80
44900;DHT22;30628;51.188;6.770;2022-07-29T16:52:45;26.40;85.70
44900;DHT22;30628;51.188;6.770;2022-07-29T16:55:11;26.30;87.00